Zenken Maru — JG5556 — position and weather

sailwx.info

Track history (hours):
 
Tides and Currents Weather Stations Pressure Air Temp Water Temp Dewpoint Dewpoint Depression Visibility Wind Speed Wind Dir Waves Ship Positions

Zenken Maru

Last reported at 2014-Aug-29 09:32 UTC. Time now 2014-Aug-29 10:18 UTC.
Position N 35°21' E 139°41'.

Length 98 m; draft 7.2 m.

Type: Cargo ship. MMSI: 431100955.

Date/timePositionNaut miles runAvg speedWind from/ knotsBaromVisibWave heightAir tempDewpointWater temp
2014-Aug-29 09:32N 35°21' E 139°41'0 0.0
2014-Aug-29 08:32N 35°21' E 139°41'0 0.1
2014-Aug-29 07:32N 35°21' E 139°41'0 0.0
2014-Aug-29 06:32N 35°21' E 139°41'0 0.1
2014-Aug-29 05:32N 35°21' E 139°41'0 0.0
2014-Aug-29 04:32N 35°21' E 139°41'0 0.0
2014-Aug-29 03:32N 35°21' E 139°41'0 0.0
2014-Aug-29 02:32N 35°21' E 139°41'0 0.0
2014-Aug-29 01:32N 35°21' E 139°41'0 0.0
2014-Aug-29 00:29N 35°21' E 139°41'0 0.0
2014-Aug-28 23:29N 35°21' E 139°41'0 0.0
2014-Aug-28 22:32N 35°21' E 139°41'0 0.0
2014-Aug-28 21:17N 35°21' E 139°41'0 0.1
2014-Aug-28 20:32N 35°21' E 139°41'0 0.1
2014-Aug-28 19:32N 35°21' E 139°41'0 0.0
2014-Aug-28 18:32N 35°21' E 139°41'0 0.0
2014-Aug-28 17:32N 35°21' E 139°41'0 0.1
2014-Aug-28 16:32N 35°21' E 139°41'0 0.0
2014-Aug-28 15:32N 35°21' E 139°41'0 0.0
2014-Aug-28 14:32N 35°21' E 139°41'0 0.0
2014-Aug-28 13:32N 35°21' E 139°41'0 0.0
2014-Aug-28 12:32N 35°21' E 139°41'0 0.0
2014-Aug-28 11:32N 35°21' E 139°41'0 0.0
2014-Aug-28 10:32N 35°21' E 139°41'0 0.0
2014-Aug-28 09:32N 35°21' E 139°41'0 0.0
2014-Aug-28 08:32N 35°21' E 139°41'0 0.1
2014-Aug-28 07:32N 35°21' E 139°41'0 0.1
2014-Aug-28 06:32N 35°21' E 139°41'2 1.9
2014-Aug-28 05:34N 35°23' E 139°40'1 0.9
2014-Aug-28 04:33N 35°23' E 139°39'0 0.0
2014-Aug-28 03:33N 35°23' E 139°39'0 0.0
2014-Aug-28 02:33N 35°23' E 139°39'0 0.0
2014-Aug-28 01:30N 35°23' E 139°39'0 0.0
2014-Aug-28 00:33N 35°23' E 139°39'0 0.0
2014-Aug-27 23:33N 35°23' E 139°39'0 0.3
2014-Aug-27 22:33N 35°23' E 139°39'6 6.4
2014-Aug-27 21:33N 35°18' E 139°44'9 8.9
2014-Aug-27 20:33N 35°10' E 139°46'10 9.6
2014-Aug-27 19:33N 35°00' E 139°43'6 6.3
2014-Aug-27 18:33N 34°54' E 139°45'7 7.1
2014-Aug-27 17:33N 34°48' E 139°49'6 6.4
2014-Aug-27 16:33N 34°42' E 139°52'8 0.3
2014-Aug-26 07:24N 34°50' E 139°48'1011.8
2014-Aug-26 06:33N 34°59' E 139°43'1211.7
2014-Aug-26 05:33N 35°10' E 139°46'1010.4
2014-Aug-26 04:33N 35°20' E 139°43'4 4.2
2014-Aug-26 03:33N 35°23' E 139°39'0 0.0
2014-Aug-26 02:33N 35°23' E 139°39'0 0.0
2014-Aug-26 01:33N 35°23' E 139°39'0 0.0
2014-Aug-26 00:33N 35°23' E 139°39'0 0.0
2014-Aug-25 23:33N 35°23' E 139°39'0 0.0
2014-Aug-25 22:33N 35°23' E 139°39'2 2.2
2014-Aug-25 21:34N 35°22' E 139°41'1 0.7
2014-Aug-25 20:31N 35°21' E 139°41'0 0.0
2014-Aug-25 19:28N 35°21' E 139°41'0 0.1
2014-Aug-25 18:31N 35°21' E 139°41'0 0.0
2014-Aug-25 17:28N 35°21' E 139°41'0 0.0
2014-Aug-25 16:31N 35°21' E 139°41'0 0.0
2014-Aug-25 15:31N 35°21' E 139°41'0 0.0
2014-Aug-25 14:31N 35°21' E 139°41'0 0.1
2014-Aug-25 13:28N 35°21' E 139°41'0 0.1
2014-Aug-25 12:31N 35°21' E 139°41'0 0.0
2014-Aug-25 11:31N 35°21' E 139°41'0 0.1
2014-Aug-25 10:31N 35°21' E 139°41'0 0.0
2014-Aug-25 09:31N 35°21' E 139°41'0 0.1
2014-Aug-25 08:31N 35°21' E 139°41'0 0.0
2014-Aug-25 07:31N 35°21' E 139°41'0 0.1
2014-Aug-25 06:31N 35°21' E 139°41'0 0.0
2014-Aug-25 05:31N 35°21' E 139°41'0 0.1
2014-Aug-25 04:31N 35°21' E 139°41'0 0.0
2014-Aug-25 03:31N 35°21' E 139°41'0 0.0
2014-Aug-25 02:31N 35°21' E 139°41'0 0.0
2014-Aug-25 01:31N 35°21' E 139°41'0 0.1
2014-Aug-25 00:31N 35°21' E 139°41'0 0.0
2014-Aug-24 23:31N 35°21' E 139°41'0 0.0
2014-Aug-24 22:31N 35°21' E 139°41'0 0.0
2014-Aug-24 21:31N 35°21' E 139°41'0 0.0
2014-Aug-24 20:31N 35°21' E 139°41'0 0.0
2014-Aug-24 19:31N 35°21' E 139°41'0 0.0
2014-Aug-24 18:31N 35°21' E 139°41'0 0.0
2014-Aug-24 17:31N 35°21' E 139°41'0 0.0
2014-Aug-24 16:31N 35°21' E 139°41'0 0.0
2014-Aug-24 15:28N 35°21' E 139°41'0 0.0
2014-Aug-24 14:31N 35°21' E 139°41'0 0.1
2014-Aug-24 13:31N 35°21' E 139°41'0 0.1
2014-Aug-24 12:31N 35°21' E 139°41'0 0.0
2014-Aug-24 11:31N 35°21' E 139°41'0 0.0
2014-Aug-24 10:31N 35°21' E 139°41'0 0.0
2014-Aug-24 09:31N 35°21' E 139°41'0 0.1
2014-Aug-24 08:31N 35°21' E 139°41'0 0.0
2014-Aug-24 07:31N 35°21' E 139°41'0 0.0
2014-Aug-24 06:31N 35°21' E 139°41'0 0.1
2014-Aug-24 05:31N 35°21' E 139°41'0 0.0
2014-Aug-24 04:31N 35°21' E 139°41'0 0.0
2014-Aug-24 03:31N 35°21' E 139°41'0 0.0
2014-Aug-24 02:31N 35°21' E 139°41'0 0.1
2014-Aug-24 01:31N 35°21' E 139°41'0 0.0
2014-Aug-24 00:31N 35°21' E 139°41'0 0.0
2014-Aug-23 23:31N 35°21' E 139°41'0 0.0
2014-Aug-23 22:31N 35°21' E 139°41'0 0.0
2014-Aug-23 21:31N 35°21' E 139°41'0 0.1
2014-Aug-23 20:31N 35°21' E 139°41'0 0.1
2014-Aug-23 19:31N 35°21' E 139°41'3 0.2
2014-Aug-23 03:31N 35°23' E 139°39'0 0.0
2014-Aug-23 02:31N 35°23' E 139°39'0 0.0
2014-Aug-23 01:31N 35°23' E 139°39'0 0.0
2014-Aug-23 00:31N 35°23' E 139°39'0 0.0
2014-Aug-22 23:31N 35°23' E 139°39'0 0.4
2014-Aug-22 22:33N 35°23' E 139°39'5 5.0
2014-Aug-22 21:33N 35°19' E 139°43'9 9.5
2014-Aug-22 20:33N 35°10' E 139°46'1010.1
2014-Aug-22 19:33N 35°00' E 139°44'8 8.1
2014-Aug-22 18:33N 34°53' E 139°47'6 5.5
2014-Aug-22 17:27N 34°47' E 139°49'5 5.8
2014-Aug-22 16:32N 34°42' E 139°52'16 7.6
2014-Aug-22 14:26N 34°28' E 140°01'16 8.3
2014-Aug-22 12:27N 34°13' E 140°10'40 1.4
2014-Aug-21 08:28N 34°50' E 139°48'1011.4
2014-Aug-21 07:33N 34°59' E 139°43'1111.4
2014-Aug-21 06:33N 35°10' E 139°45'1110.8
2014-Aug-21 05:33N 35°21' E 139°42'3 3.4
2014-Aug-21 04:33N 35°23' E 139°39'0 0.0
2014-Aug-21 03:33N 35°23' E 139°39'0 0.0
2014-Aug-21 02:33N 35°23' E 139°39'0 0.0
2014-Aug-21 01:33N 35°23' E 139°39'0 0.0
2014-Aug-21 00:33N 35°23' E 139°39'0 0.0
2014-Aug-20 23:33N 35°23' E 139°39'0 0.0
2014-Aug-20 22:33N 35°23' E 139°39'0 0.0
2014-Aug-20 21:33N 35°23' E 139°39'0 0.0
2014-Aug-20 20:33N 35°23' E 139°39'0 0.0
2014-Aug-20 19:33N 35°23' E 139°39'0 0.0
2014-Aug-20 18:33N 35°23' E 139°39'0 0.0
2014-Aug-20 17:33N 35°23' E 139°39'0 0.0
2014-Aug-20 16:33N 35°23' E 139°39'0 0.0
2014-Aug-20 15:33N 35°23' E 139°39'0 0.0
2014-Aug-20 14:33N 35°23' E 139°39'0 0.0
2014-Aug-20 13:33N 35°23' E 139°39'0 0.0
2014-Aug-20 12:33N 35°23' E 139°39'0 0.0
2014-Aug-20 11:33N 35°23' E 139°39'0 0.0
2014-Aug-20 10:33N 35°23' E 139°39'0 0.0
2014-Aug-20 09:33N 35°23' E 139°39'0 0.0
2014-Aug-20 08:33N 35°23' E 139°39'0 0.0
2014-Aug-20 07:33N 35°23' E 139°39'0 0.5
2014-Aug-20 06:33N 35°23' E 139°40'2 2.4
2014-Aug-20 05:33N 35°21' E 139°41'0 0.0
2014-Aug-20 04:31N 35°21' E 139°41'0 0.0
2014-Aug-20 03:31N 35°21' E 139°41'0 0.0
2014-Aug-20 02:31N 35°21' E 139°41'0 0.1
2014-Aug-20 01:31N 35°21' E 139°41'0 0.0
2014-Aug-20 00:31N 35°21' E 139°41'0 0.1
2014-Aug-19 23:28N 35°21' E 139°41'0 0.0
2014-Aug-19 22:31N 35°21' E 139°41'0 0.0
2014-Aug-19 21:31N 35°21' E 139°41'0 0.0
2014-Aug-19 20:31N 35°21' E 139°41'0 0.0
2014-Aug-19 19:31N 35°21' E 139°41'0 0.0
2014-Aug-19 18:31N 35°21' E 139°41'0 0.0
2014-Aug-19 17:31N 35°21' E 139°41'0 0.0
2014-Aug-19 16:31N 35°21' E 139°41'0 0.0
2014-Aug-19 15:31N 35°21' E 139°41'0 0.0
2014-Aug-19 14:31N 35°21' E 139°41'0 0.0
2014-Aug-19 13:31N 35°21' E 139°41'0 0.0
2014-Aug-19 12:31N 35°21' E 139°41'0 0.0
2014-Aug-19 11:31N 35°21' E 139°41'0 0.0
2014-Aug-19 10:28N 35°21' E 139°41'  
Track history (hours):
 
Tides and Currents Weather Stations Pressure Air Temp Water Temp Dewpoint Dewpoint Depression Visibility Wind Speed Wind Dir Waves Ship Positions

Zenken Maru

Last reported at 2014-Aug-29 09:32 UTC. Time now 2014-Aug-29 10:18 UTC.
Position N 35°21' E 139°41'.

Length 98 m; draft 7.2 m.

Type: Cargo ship. MMSI: 431100955.

Date/timePositionNaut miles runAvg speedWind from/ knotsBaromVisibWave heightAir tempDewpointWater temp
2014-Aug-29 09:32N 35°21' E 139°41'0 0.0
2014-Aug-29 08:32N 35°21' E 139°41'0 0.1
2014-Aug-29 07:32N 35°21' E 139°41'0 0.0
2014-Aug-29 06:32N 35°21' E 139°41'0 0.1
2014-Aug-29 05:32N 35°21' E 139°41'0 0.0
2014-Aug-29 04:32N 35°21' E 139°41'0 0.0
2014-Aug-29 03:32N 35°21' E 139°41'0 0.0
2014-Aug-29 02:32N 35°21' E 139°41'0 0.0
2014-Aug-29 01:32N 35°21' E 139°41'0 0.0
2014-Aug-29 00:29N 35°21' E 139°41'0 0.0
2014-Aug-28 23:29N 35°21' E 139°41'0 0.0
2014-Aug-28 22:32N 35°21' E 139°41'0 0.0
2014-Aug-28 21:17N 35°21' E 139°41'0 0.1
2014-Aug-28 20:32N 35°21' E 139°41'0 0.1
2014-Aug-28 19:32N 35°21' E 139°41'0 0.0
2014-Aug-28 18:32N 35°21' E 139°41'0 0.0
2014-Aug-28 17:32N 35°21' E 139°41'0 0.1
2014-Aug-28 16:32N 35°21' E 139°41'0 0.0
2014-Aug-28 15:32N 35°21' E 139°41'0 0.0
2014-Aug-28 14:32N 35°21' E 139°41'0 0.0
2014-Aug-28 13:32N 35°21' E 139°41'0 0.0
2014-Aug-28 12:32N 35°21' E 139°41'0 0.0
2014-Aug-28 11:32N 35°21' E 139°41'0 0.0
2014-Aug-28 10:32N 35°21' E 139°41'0 0.0
2014-Aug-28 09:32N 35°21' E 139°41'0 0.0
2014-Aug-28 08:32N 35°21' E 139°41'0 0.1
2014-Aug-28 07:32N 35°21' E 139°41'0 0.1
2014-Aug-28 06:32N 35°21' E 139°41'2 1.9
2014-Aug-28 05:34N 35°23' E 139°40'1 0.9
2014-Aug-28 04:33N 35°23' E 139°39'0 0.0
2014-Aug-28 03:33N 35°23' E 139°39'0 0.0
2014-Aug-28 02:33N 35°23' E 139°39'0 0.0
2014-Aug-28 01:30N 35°23' E 139°39'0 0.0
2014-Aug-28 00:33N 35°23' E 139°39'0 0.0
2014-Aug-27 23:33N 35°23' E 139°39'0 0.3
2014-Aug-27 22:33N 35°23' E 139°39'6 6.4
2014-Aug-27 21:33N 35°18' E 139°44'9 8.9
2014-Aug-27 20:33N 35°10' E 139°46'10 9.6
2014-Aug-27 19:33N 35°00' E 139°43'6 6.3
2014-Aug-27 18:33N 34°54' E 139°45'7 7.1
2014-Aug-27 17:33N 34°48' E 139°49'6 6.4
2014-Aug-27 16:33N 34°42' E 139°52'8 0.3
2014-Aug-26 07:24N 34°50' E 139°48'1011.8
2014-Aug-26 06:33N 34°59' E 139°43'1211.7
2014-Aug-26 05:33N 35°10' E 139°46'1010.4
2014-Aug-26 04:33N 35°20' E 139°43'4 4.2
2014-Aug-26 03:33N 35°23' E 139°39'0 0.0
2014-Aug-26 02:33N 35°23' E 139°39'0 0.0
2014-Aug-26 01:33N 35°23' E 139°39'0 0.0
2014-Aug-26 00:33N 35°23' E 139°39'0 0.0
2014-Aug-25 23:33N 35°23' E 139°39'0 0.0
2014-Aug-25 22:33N 35°23' E 139°39'2 2.2
2014-Aug-25 21:34N 35°22' E 139°41'1 0.7
2014-Aug-25 20:31N 35°21' E 139°41'0 0.0
2014-Aug-25 19:28N 35°21' E 139°41'0 0.1
2014-Aug-25 18:31N 35°21' E 139°41'0 0.0
2014-Aug-25 17:28N 35°21' E 139°41'0 0.0
2014-Aug-25 16:31N 35°21' E 139°41'0 0.0
2014-Aug-25 15:31N 35°21' E 139°41'0 0.0
2014-Aug-25 14:31N 35°21' E 139°41'0 0.1
2014-Aug-25 13:28N 35°21' E 139°41'0 0.1
2014-Aug-25 12:31N 35°21' E 139°41'0 0.0
2014-Aug-25 11:31N 35°21' E 139°41'0 0.1
2014-Aug-25 10:31N 35°21' E 139°41'0 0.0
2014-Aug-25 09:31N 35°21' E 139°41'0 0.1
2014-Aug-25 08:31N 35°21' E 139°41'0 0.0
2014-Aug-25 07:31N 35°21' E 139°41'0 0.1
2014-Aug-25 06:31N 35°21' E 139°41'0 0.0
2014-Aug-25 05:31N 35°21' E 139°41'0 0.1
2014-Aug-25 04:31N 35°21' E 139°41'0 0.0
2014-Aug-25 03:31N 35°21' E 139°41'0 0.0
2014-Aug-25 02:31N 35°21' E 139°41'0 0.0
2014-Aug-25 01:31N 35°21' E 139°41'0 0.1
2014-Aug-25 00:31N 35°21' E 139°41'0 0.0
2014-Aug-24 23:31N 35°21' E 139°41'0 0.0
2014-Aug-24 22:31N 35°21' E 139°41'0 0.0
2014-Aug-24 21:31N 35°21' E 139°41'0 0.0
2014-Aug-24 20:31N 35°21' E 139°41'0 0.0
2014-Aug-24 19:31N 35°21' E 139°41'0 0.0
2014-Aug-24 18:31N 35°21' E 139°41'0 0.0
2014-Aug-24 17:31N 35°21' E 139°41'0 0.0
2014-Aug-24 16:31N 35°21' E 139°41'0 0.0
2014-Aug-24 15:28N 35°21' E 139°41'0 0.0
2014-Aug-24 14:31N 35°21' E 139°41'0 0.1
2014-Aug-24 13:31N 35°21' E 139°41'0 0.1
2014-Aug-24 12:31N 35°21' E 139°41'0 0.0
2014-Aug-24 11:31N 35°21' E 139°41'0 0.0
2014-Aug-24 10:31N 35°21' E 139°41'0 0.0
2014-Aug-24 09:31N 35°21' E 139°41'0 0.1
2014-Aug-24 08:31N 35°21' E 139°41'0 0.0
2014-Aug-24 07:31N 35°21' E 139°41'0 0.0
2014-Aug-24 06:31N 35°21' E 139°41'0 0.1
2014-Aug-24 05:31N 35°21' E 139°41'0 0.0
2014-Aug-24 04:31N 35°21' E 139°41'0 0.0
2014-Aug-24 03:31N 35°21' E 139°41'0 0.0
2014-Aug-24 02:31N 35°21' E 139°41'0 0.1
2014-Aug-24 01:31N 35°21' E 139°41'0 0.0
2014-Aug-24 00:31N 35°21' E 139°41'0 0.0
2014-Aug-23 23:31N 35°21' E 139°41'0 0.0
2014-Aug-23 22:31N 35°21' E 139°41'0 0.0
2014-Aug-23 21:31N 35°21' E 139°41'0 0.1
2014-Aug-23 20:31N 35°21' E 139°41'0 0.1
2014-Aug-23 19:31N 35°21' E 139°41'3 0.2
2014-Aug-23 03:31N 35°23' E 139°39'0 0.0
2014-Aug-23 02:31N 35°23' E 139°39'0 0.0
2014-Aug-23 01:31N 35°23' E 139°39'0 0.0
2014-Aug-23 00:31N 35°23' E 139°39'0 0.0
2014-Aug-22 23:31N 35°23' E 139°39'0 0.4
2014-Aug-22 22:33N 35°23' E 139°39'5 5.0
2014-Aug-22 21:33N 35°19' E 139°43'9 9.5
2014-Aug-22 20:33N 35°10' E 139°46'1010.1
2014-Aug-22 19:33N 35°00' E 139°44'8 8.1
2014-Aug-22 18:33N 34°53' E 139°47'6 5.5
2014-Aug-22 17:27N 34°47' E 139°49'5 5.8
2014-Aug-22 16:32N 34°42' E 139°52'16 7.6
2014-Aug-22 14:26N 34°28' E 140°01'16 8.3
2014-Aug-22 12:27N 34°13' E 140°10'40 1.4
2014-Aug-21 08:28N 34°50' E 139°48'1011.4
2014-Aug-21 07:33N 34°59' E 139°43'1111.4
2014-Aug-21 06:33N 35°10' E 139°45'1110.8
2014-Aug-21 05:33N 35°21' E 139°42'3 3.4
2014-Aug-21 04:33N 35°23' E 139°39'0 0.0
2014-Aug-21 03:33N 35°23' E 139°39'0 0.0
2014-Aug-21 02:33N 35°23' E 139°39'0 0.0
2014-Aug-21 01:33N 35°23' E 139°39'0 0.0
2014-Aug-21 00:33N 35°23' E 139°39'0 0.0
2014-Aug-20 23:33N 35°23' E 139°39'0 0.0
2014-Aug-20 22:33N 35°23' E 139°39'0 0.0
2014-Aug-20 21:33N 35°23' E 139°39'0 0.0
2014-Aug-20 20:33N 35°23' E 139°39'0 0.0
2014-Aug-20 19:33N 35°23' E 139°39'0 0.0
2014-Aug-20 18:33N 35°23' E 139°39'0 0.0
2014-Aug-20 17:33N 35°23' E 139°39'0 0.0
2014-Aug-20 16:33N 35°23' E 139°39'0 0.0
2014-Aug-20 15:33N 35°23' E 139°39'0 0.0
2014-Aug-20 14:33N 35°23' E 139°39'0 0.0
2014-Aug-20 13:33N 35°23' E 139°39'0 0.0
2014-Aug-20 12:33N 35°23' E 139°39'0 0.0
2014-Aug-20 11:33N 35°23' E 139°39'0 0.0
2014-Aug-20 10:33N 35°23' E 139°39'0 0.0
2014-Aug-20 09:33N 35°23' E 139°39'0 0.0
2014-Aug-20 08:33N 35°23' E 139°39'0 0.0
2014-Aug-20 07:33N 35°23' E 139°39'0 0.5
2014-Aug-20 06:33N 35°23' E 139°40'2 2.4
2014-Aug-20 05:33N 35°21' E 139°41'0 0.0
2014-Aug-20 04:31N 35°21' E 139°41'0 0.0
2014-Aug-20 03:31N 35°21' E 139°41'0 0.0
2014-Aug-20 02:31N 35°21' E 139°41'0 0.1
2014-Aug-20 01:31N 35°21' E 139°41'0 0.0
2014-Aug-20 00:31N 35°21' E 139°41'0 0.1
2014-Aug-19 23:28N 35°21' E 139°41'0 0.0
2014-Aug-19 22:31N 35°21' E 139°41'0 0.0
2014-Aug-19 21:31N 35°21' E 139°41'0 0.0
2014-Aug-19 20:31N 35°21' E 139°41'0 0.0
2014-Aug-19 19:31N 35°21' E 139°41'0 0.0
2014-Aug-19 18:31N 35°21' E 139°41'0 0.0
2014-Aug-19 17:31N 35°21' E 139°41'0 0.0
2014-Aug-19 16:31N 35°21' E 139°41'0 0.0
2014-Aug-19 15:31N 35°21' E 139°41'0 0.0
2014-Aug-19 14:31N 35°21' E 139°41'0 0.0
2014-Aug-19 13:31N 35°21' E 139°41'0 0.0
2014-Aug-19 12:31N 35°21' E 139°41'0 0.0
2014-Aug-19 11:31N 35°21' E 139°41'0 0.0
2014-Aug-19 10:28N 35°21' E 139°41'  

Dump ship's entire track history